Time;durP1;ratioP1;P1;durP2;ratioP2;P2;SDS_P1;SDS_P2;PMS_P1;PMS_P2;Temp;Humidity;BMP_temperature;BMP_pressure;BME280_temperature;BME280_humidity;BME280_pressure;Samples;Min_cycle;Max_cycle;Signal;HPM_P1;HPM_P2
2021/03/28 00:00:18;;;;;;;11.20;7.58;;;;;;;4.80;80.23;97600.64;1789093;80;22331;-83
2021/03/28 00:02:57;;;;;;;9.95;6.60;;;;;;;4.82;79.73;97610.94;1750880;81;21521;-84
2021/03/28 00:05:29;;;;;;;12.25;7.85;;;;;;;4.87;80.08;97612.39;1785054;80;21112;-84
2021/03/28 00:08:17;;;;;;;9.70;6.60;;;;;;;4.83;79.81;97600.72;1782423;80;21136;-84
2021/03/28 00:10:48;;;;;;;8.78;7.12;;;;;;;4.76;80.07;97593.69;1769120;80;21297;-84
2021/03/28 00:13:21;;;;;;;;;;;;;;;4.73;79.75;97595.95;1778607;79;21106;-84
2021/03/28 00:15:59;;;;;;;6.95;4.97;;;;;;;4.73;79.39;97596.75;1789047;80;20171;-84
2021/03/28 00:18:31;;;;;;;9.15;7.08;;;;;;;4.74;79.47;97607.55;1781414;80;21088;-84
2021/03/28 00:21:16;;;;;;;10.98;7.28;;;;;;;4.72;79.39;97599.09;1777931;80;21237;-84
2021/03/28 00:23:51;;;;;;;11.40;6.75;;;;;;;4.75;79.13;97601.27;1776850;80;21111;-83
2021/03/28 00:26:36;;;;;;;11.15;7.33;;;;;;;4.76;78.86;97585.00;1776430;80;21080;-83
2021/03/28 00:29:23;;;;;;;9.13;6.62;;;;;;;4.80;78.73;97586.70;1791907;79;21483;-83
2021/03/28 00:32:05;;;;;;;7.90;5.08;;;;;;;4.84;78.56;97576.05;1789272;79;21158;-84
2021/03/28 00:34:39;;;;;;;10.65;5.75;;;;;;;4.88;78.33;97577.22;1780342;78;21273;-84
2021/03/28 00:37:14;;;;;;;9.63;5.62;;;;;;;4.86;77.91;97585.83;1775218;79;21602;-84
2021/03/28 00:39:58;;;;;;;6.95;5.12;;;;;;;4.89;77.69;97576.99;1776580;80;21138;-83
2021/03/28 00:42:45;;;;;;;8.10;5.40;;;;;;;4.96;77.58;97573.00;1782964;79;21096;-84
2021/03/28 00:45:25;;;;;;;11.35;5.95;;;;;;;4.96;77.55;97576.43;1779224;79;21084;-84
2021/03/28 00:48:18;;;;;;;;;;;;;;;4.93;77.47;97573.44;1790866;78;21155;-83
2021/03/28 00:51:09;;;;;;;8.35;6.03;;;;;;;4.92;77.66;97581.00;1779644;79;20123;-83
2021/03/28 00:54:02;;;;;;;10.15;6.53;;;;;;;4.83;77.83;97584.95;1774874;80;21155;-83
2021/03/28 00:56:58;;;;;;;10.40;6.37;;;;;;;4.79;78.01;97585.11;1765742;79;23045;-82
2021/03/28 00:59:39;;;;;;;7.70;5.67;;;;;;;4.74;78.01;97589.16;1746083;81;21462;-83
2021/03/28 01:02:14;;;;;;;9.70;5.80;;;;;;;4.81;78.07;97585.69;1737386;81;21135;-83
2021/03/28 01:05:05;;;;;;;8.75;5.80;;;;;;;4.83;77.58;97574.45;1729043;82;21491;-83
2021/03/28 01:07:46;;;;;;;8.73;5.22;;;;;;;4.85;77.28;97584.22;1731457;82;21448;-82
2021/03/28 01:10:48;;;;;;;10.35;6.67;;;;;;;4.87;77.23;97590.06;1710501;83;21127;-83
2021/03/28 01:14:03;;;;;;;5.72;4.45;;;;;;;4.90;77.41;97590.42;1718759;82;21099;-83
2021/03/28 01:16:58;;;;;;;6.12;3.70;;;;;;;4.91;76.94;97599.11;1721869;82;21123;-83
2021/03/28 01:19:39;;;;;;;6.83;4.00;;;;;;;4.89;76.46;97592.76;1715442;81;21144;-83
2021/03/28 01:22:20;;;;;;;8.30;3.72;;;;;;;4.86;76.02;97589.77;1718438;81;21501;-83
2021/03/28 01:25:10;;;;;;;6.17;4.40;;;;;;;4.80;75.83;97600.64;1718053;83;21110;-83
2021/03/28 01:27:55;;;;;;;6.85;4.10;;;;;;;4.73;75.81;97598.06;1730138;82;21125;-83
2021/03/28 01:30:27;;;;;;;6.20;4.35;;;;;;;4.72;75.87;97597.77;1717638;82;21169;-83
2021/03/28 01:33:02;;;;;;;6.10;4.30;;;;;;;4.67;75.96;97601.57;1717307;82;21163;-84
2021/03/28 01:35:41;;;;;;;7.37;4.25;;;;;;;4.67;76.32;97607.33;1715073;81;21115;-84
2021/03/28 01:38:32;;;;;;;9.63;4.87;;;;;;;4.66;76.52;97607.04;1719302;83;21505;-83
2021/03/28 01:41:02;;;;;;;;;;;;;;;4.63;76.55;97607.45;1724668;83;21161;-83
2021/03/28 01:43:52;;;;;;;6.67;3.42;;;;;;;4.62;75.90;97601.39;1729917;82;20148;-83
2021/03/28 01:46:41;;;;;;;6.58;3.50;;;;;;;4.67;75.56;97605.51;1701201;82;21153;-83
2021/03/28 01:49:56;;;;;;;8.23;4.37;;;;;;;4.70;75.23;97599.81;1716437;83;21127;-82
2021/03/28 01:52:53;;;;;;;7.00;4.20;;;;;;;4.77;75.12;97603.69;1721401;82;21091;-83
2021/03/28 01:55:37;;;;;;;7.90;4.15;;;;;;;4.77;74.78;97606.31;1703520;83;21133;-83
2021/03/28 01:58:42;;;;;;;7.83;4.25;;;;;;;4.68;74.83;97593.98;1718054;82;21111;-83
2021/03/28 02:01:23;;;;;;;6.60;4.22;;;;;;;4.64;74.41;97594.09;1702910;83;21552;-83
2021/03/28 02:04:04;;;;;;;6.10;4.05;;;;;;;4.65;74.74;97594.93;1725667;81;21119;-83
2021/03/28 02:06:49;;;;;;;5.25;4.00;;;;;;;4.67;74.75;97606.83;1721200;82;21151;-83
2021/03/28 02:09:42;;;;;;;7.78;4.85;;;;;;;4.71;74.32;97609.30;1654974;82;21135;-83
2021/03/28 02:12:33;;;;;;;9.10;5.28;;;;;;;4.74;74.30;97609.38;1728537;82;21166;-83
2021/03/28 02:15:28;;;;;;;9.23;4.78;;;;;;;4.76;73.94;97613.39;1723503;83;21143;-83
2021/03/28 02:18:03;;;;;;;8.98;5.50;;;;;;;4.76;73.89;97605.51;1705557;82;21641;-83
2021/03/28 02:21:00;;;;;;;8.33;6.00;;;;;;;4.70;73.66;97602.95;1686231;83;21106;-83
2021/03/28 02:23:47;;;;;;;9.08;5.55;;;;;;;4.72;73.76;97605.66;1699307;82;21122;-83
2021/03/28 02:26:40;;;;;;;8.50;5.45;;;;;;;4.74;73.88;97599.67;1712888;83;21141;-83
2021/03/28 02:29:28;;;;;;;10.08;6.05;;;;;;;4.75;73.72;97605.22;1723033;83;21481;-83
2021/03/28 02:32:20;;;;;;;10.85;5.55;;;;;;;4.74;73.73;97602.30;1721604;83;21162;-83
2021/03/28 02:35:15;;;;;;;11.38;6.00;;;;;;;4.76;73.85;97608.13;1721173;83;21150;-83
2021/03/28 02:37:53;;;;;;;10.40;6.65;;;;;;;4.79;73.85;97615.31;1718599;82;21273;-83
2021/03/28 02:40:47;;;;;;;11.28;7.12;;;;;;;4.79;73.80;97619.26;1728267;81;21110;-83
2021/03/28 02:43:41;;;;;;;12.80;7.12;;;;;;;4.74;73.78;97624.63;1727418;81;21267;-83
2021/03/28 02:46:40;;;;;;;12.60;7.85;;;;;;;4.72;73.94;97626.67;1715030;83;21134;-83
2021/03/28 02:49:32;;;;;;;11.10;7.05;;;;;;;4.68;73.85;97636.00;1714571;83;21147;-83
2021/03/28 02:52:53;;;;;;;9.18;7.00;;;;;;;4.65;73.90;97636.44;1725247;81;21521;-83
2021/03/28 02:56:02;;;;;;;12.90;8.15;;;;;;;4.64;74.16;97640.06;1722755;82;21122;-84
2021/03/28 02:59:05;;;;;;;12.15;7.67;;;;;;;4.49;74.18;97631.70;1711700;83;21230;-83
2021/03/28 03:02:12;;;;;;;13.22;7.20;;;;;;;4.44;74.52;97634.98;1722307;81;21173;-83
2021/03/28 03:05:17;;;;;;;15.23;8.23;;;;;;;4.38;74.56;97637.66;1717698;83;21096;-83
2021/03/28 03:08:13;;;;;;;12.33;8.00;;;;;;;4.34;74.69;97646.95;1715151;83;21143;-83
2021/03/28 03:11:13;;;;;;;12.55;8.08;;;;;;;4.32;74.83;97643.23;1720438;82;21471;-83
2021/03/28 03:14:09;;;;;;;12.70;7.97;;;;;;;4.16;74.55;97652.94;1720960;81;21151;-83
2021/03/28 03:17:30;;;;;;;11.83;6.85;;;;;;;4.21;74.89;97657.03;1771026;79;23053;-82
2021/03/28 03:20:24;;;;;;;7.33;5.58;;;;;;;4.15;75.11;97665.26;1748068;81;21127;-83
2021/03/28 03:22:59;;;;;;;10.38;5.58;;;;;;;3.75;75.82;97675.64;1717489;81;21222;-83
2021/03/28 03:26:22;;;;;;;7.92;4.53;;;;;;;3.54;75.64;97674.13;1705439;82;21535;-83
2021/03/28 03:29:25;;;;;;;6.42;4.50;;;;;;;3.45;76.31;97683.22;1718241;83;21135;-83
2021/03/28 03:32:16;;;;;;;6.65;4.15;;;;;;;3.36;76.22;97691.00;1727657;82;21515;-84
2021/03/28 03:34:55;;;;;;;;;;;;;;;3.21;76.29;97699.09;1730592;83;21507;-83
2021/03/28 03:37:50;;;;;;;7.35;4.92;;;;;;;3.08;76.34;97701.22;1714056;83;20130;-83
2021/03/28 03:40:37;;;;;;;6.08;5.35;;;;;;;2.97;76.68;97703.97;1705133;83;21114;-83
2021/03/28 03:43:47;;;;;;;9.40;5.83;;;;;;;2.90;76.71;97703.16;1693122;83;21196;-83
2021/03/28 03:46:31;;;;;;;11.33;6.92;;;;;;;2.88;77.19;97699.13;1726310;82;21163;-83
2021/03/28 03:49:19;;;;;;;4.87;3.22;;;;;;;2.83;77.10;97708.91;1706230;83;21115;-83
2021/03/28 03:52:17;;;;;;;7.72;5.53;;;;;;;2.74;78.28;97708.80;1721287;83;21138;-84
2021/03/28 03:54:59;;;;;;;10.48;5.70;;;;;;;2.49;78.68;97706.46;1717473;81;21172;-84
2021/03/28 03:57:49;;;;;;;8.60;5.40;;;;;;;2.38;79.19;97723.55;1738171;82;21500;-84
2021/03/28 04:00:29;;;;;;;10.30;5.95;;;;;;;2.30;79.50;97728.48;1718827;83;21623;-84
2021/03/28 04:03:12;;;;;;;;;;;;;;;2.22;79.86;97727.84;1713995;82;21134;-85
2021/03/28 04:06:22;;;;;;;6.60;3.10;;;;;;;2.23;79.76;97719.80;1720888;83;20122;-84
2021/03/28 04:08:54;;;;;;;10.17;4.33;;;;;;;2.19;80.11;97730.86;1725531;83;21124;-84
2021/03/28 04:12:15;;;;;;;6.55;3.45;;;;;;;2.16;80.45;97743.83;1712721;83;21493;-84
2021/03/28 04:15:23;;;;;;;5.90;4.12;;;;;;;2.16;80.02;97738.60;1725184;83;21134;-84
2021/03/28 04:18:25;;;;;;;4.28;3.60;;;;;;;2.17;79.61;97745.45;1721164;83;21494;-84
2021/03/28 04:21:12;;;;;;;10.68;7.70;;;;;;;2.23;79.72;97751.69;1727649;82;21151;-84
2021/03/28 04:23:57;;;;;;;7.60;5.12;;;;;;;2.24;79.82;97767.19;1719674;83;21114;-84
2021/03/28 04:26:46;;;;;;;7.25;5.58;;;;;;;2.25;80.13;97767.52;1721451;83;21114;-84
2021/03/28 04:29:15;;;;;;;8.30;4.72;;;;;;;2.25;80.29;97767.99;1726643;83;21475;-84
2021/03/28 04:32:03;;;;;;;7.03;5.10;;;;;;;2.23;80.32;97765.58;1715444;82;21126;-84
2021/03/28 04:35:00;;;;;;;8.58;5.37;;;;;;;2.22;80.10;97770.50;1717938;83;21632;-84
2021/03/28 04:37:44;;;;;;;10.95;6.85;;;;;;;2.17;79.92;97753.80;1722807;82;21282;-83
2021/03/28 04:40:54;;;;;;;5.72;4.67;;;;;;;2.15;79.37;97768.38;1694548;83;21080;-83
2021/03/28 04:43:52;;;;;;;6.67;4.60;;;;;;;2.15;79.22;97778.84;1732581;82;21118;-83
2021/03/28 04:46:53;;;;;;;9.80;4.95;;;;;;;2.14;78.72;97779.84;1719991;83;21109;-83
2021/03/28 04:49:40;;;;;;;10.18;6.03;;;;;;;2.11;78.44;97790.68;1718990;83;21256;-83
2021/03/28 04:52:55;;;;;;;10.40;5.50;;;;;;;2.15;78.17;97796.34;1714846;83;21671;-83
2021/03/28 04:55:55;;;;;;;9.15;4.67;;;;;;;2.19;77.86;97799.68;1721221;83;21125;-84
2021/03/28 04:58:48;;;;;;;6.15;3.17;;;;;;;2.19;77.68;97810.14;1721803;83;21678;-84
2021/03/28 05:01:54;;;;;;;9.43;4.47;;;;;;;2.26;77.75;97818.84;1725099;83;21151;-83
2021/03/28 05:05:15;;;;;;;8.40;4.60;;;;;;;2.44;77.73;97814.37;1726210;83;21145;-83
2021/03/28 05:08:22;;;;;;;8.48;4.70;;;;;;;2.88;77.40;97811.75;1721695;82;21103;-83
2021/03/28 05:11:18;;;;;;;6.85;4.53;;;;;;;3.01;76.65;97810.45;1721346;83;21253;-83
2021/03/28 05:14:24;;;;;;;7.20;3.90;;;;;;;2.81;75.89;97815.65;1725124;83;21245;-83
2021/03/28 05:17:06;;;;;;;10.32;5.00;;;;;;;2.78;75.93;97813.44;1732805;83;21242;-84
2021/03/28 05:19:45;;;;;;;5.55;3.40;;;;;;;2.68;75.75;97820.89;1722992;83;21095;-83
2021/03/28 05:22:42;;;;;;;9.35;4.50;;;;;;;2.58;75.76;97823.06;1730626;81;21075;-83
2021/03/28 05:25:42;;;;;;;8.30;4.83;;;;;;;2.50;75.67;97823.23;1723741;83;21087;-83
2021/03/28 05:28:20;;;;;;;7.62;3.90;;;;;;;2.46;75.52;97829.88;1724501;83;21091;-83
2021/03/28 05:31:12;;;;;;;7.85;4.40;;;;;;;2.46;75.65;97837.72;1731615;81;21098;-83
2021/03/28 05:34:03;;;;;;;7.60;4.40;;;;;;;2.46;75.56;97834.60;1724434;82;21136;-83
2021/03/28 05:36:57;;;;;;;9.13;4.87;;;;;;;2.46;75.66;97838.53;1724641;81;21134;-83
2021/03/28 05:40:10;;;;;;;9.55;4.55;;;;;;;2.42;75.83;97843.86;1715834;81;21168;-83
2021/03/28 05:43:09;;;;;;;8.33;3.80;;;;;;;2.55;75.70;97850.95;1729648;81;21207;-83
2021/03/28 05:46:19;;;;;;;8.28;4.83;;;;;;;2.65;75.70;97853.48;1723692;81;21139;-83
2021/03/28 05:49:13;;;;;;;9.50;4.65;;;;;;;2.75;75.44;97853.11;1725211;81;21145;-83
2021/03/28 05:52:06;;;;;;;9.95;5.53;;;;;;;3.06;75.67;97851.76;1721042;81;21114;-83
2021/03/28 05:55:09;;;;;;;8.43;4.33;;;;;;;3.29;75.14;97853.50;1718065;83;21156;-83
2021/03/28 05:58:28;;;;;;;7.85;4.50;;;;;;;3.35;74.28;97850.06;1741826;81;21150;-82
2021/03/28 06:01:20;;;;;;;6.33;4.33;;;;;;;3.33;73.84;97852.09;1739292;81;21697;-84
2021/03/28 06:04:19;;;;;;;9.03;5.58;;;;;;;3.35;73.42;97859.24;1729214;81;21106;-83
2021/03/28 06:07:26;;;;;;;9.50;4.53;;;;;;;3.37;73.26;97866.39;1733949;82;21193;-84
2021/03/28 06:10:21;;;;;;;7.22;4.17;;;;;;;3.58;73.37;97868.02;1739788;81;21108;-83
2021/03/28 06:13:09;;;;;;;9.70;4.80;;;;;;;3.65;73.06;97873.25;1720746;82;21142;-84
2021/03/28 06:15:47;;;;;;;10.93;5.25;;;;;;;3.63;72.60;97876.59;1727078;81;21506;-84
2021/03/28 06:18:57;;;;;;;9.53;5.30;;;;;;;3.43;72.69;97873.98;1737993;81;21512;-84
2021/03/28 06:22:00;;;;;;;9.85;6.05;;;;;;;3.28;72.69;97881.53;1723069;83;21135;-84
2021/03/28 06:24:47;;;;;;;8.30;4.83;;;;;;;3.17;72.94;97886.05;1727384;83;21169;-83
2021/03/28 06:27:41;;;;;;;9.80;4.80;;;;;;;3.08;73.06;97900.83;1741797;81;21111;-83
2021/03/28 06:30:49;;;;;;;10.82;5.60;;;;;;;3.00;73.30;97888.73;1723660;83;21129;-83
2021/03/28 06:33:47;;;;;;;7.87;4.85;;;;;;;3.12;73.66;97898.14;1722973;83;21127;-83
2021/03/28 06:37:08;;;;;;;9.80;5.17;;;;;;;3.31;73.52;97902.59;1722788;81;21470;-84
2021/03/28 06:40:26;;;;;;;9.58;5.08;;;;;;;3.49;73.21;97904.11;1730353;83;21272;-84
2021/03/28 06:43:22;;;;;;;9.95;5.65;;;;;;;3.57;73.38;97910.48;1723892;81;21186;-84
2021/03/28 06:46:19;;;;;;;9.73;4.95;;;;;;;3.60;73.02;97902.71;1731410;81;21161;-83
2021/03/28 06:49:19;;;;;;;10.35;5.75;;;;;;;3.45;72.71;97912.09;1734146;81;21514;-84
2021/03/28 06:52:03;;;;;;;10.10;5.35;;;;;;;3.28;73.02;97920.03;1727988;81;21560;-83
2021/03/28 06:54:50;;;;;;;11.53;5.53;;;;;;;3.33;73.22;97916.80;1709033;83;21546;-83
2021/03/28 06:57:55;;;;;;;10.93;6.08;;;;;;;3.42;72.96;97920.36;1724249;83;21499;-83
2021/03/28 07:00:40;;;;;;;9.20;4.97;;;;;;;3.52;72.92;97923.40;1724908;83;21458;-84
2021/03/28 07:03:41;;;;;;;9.18;4.83;;;;;;;3.43;72.67;97916.73;1725222;83;21127;-82
2021/03/28 07:06:35;;;;;;;6.70;4.08;;;;;;;3.39;72.37;97920.77;1723385;83;21071;-83
2021/03/28 07:09:34;;;;;;;10.85;6.53;;;;;;;3.39;72.44;97918.14;1722036;83;21102;-83
2021/03/28 07:12:18;;;;;;;12.90;6.35;;;;;;;3.53;72.62;97918.95;1725136;83;21150;-84
2021/03/28 07:15:21;;;;;;;6.28;4.37;;;;;;;3.66;72.91;97930.77;1728429;81;21498;-84
2021/03/28 07:18:12;;;;;;;10.15;5.05;;;;;;;3.54;72.25;97924.00;1726950;83;21240;-84
2021/03/28 07:21:00;;;;;;;;;;;;;;;3.36;72.66;97931.62;1715546;83;21126;-84
2021/03/28 07:24:08;;;;;;;10.48;6.08;;;;;;;3.42;73.67;97929.53;1718705;83;20224;-84
2021/03/28 07:27:18;;;;;;;11.18;6.12;;;;;;;4.20;73.34;97924.45;1718906;83;21111;-84
2021/03/28 07:30:20;;;;;;;8.60;6.33;;;;;;;4.36;72.07;97933.70;1726145;83;21475;-85
2021/03/28 07:33:26;;;;;;;9.63;6.60;;;;;;;4.47;72.68;97925.19;1712394;83;21806;-84
2021/03/28 07:36:38;;;;;;;10.18;6.92;;;;;;;5.44;72.35;97925.43;1723146;81;21245;-82
2021/03/28 07:39:29;;;;;;;13.05;9.25;;;;;;;6.61;70.28;97928.25;1717763;82;21532;-82
2021/03/28 07:42:10;;;;;;;10.35;7.62;;;;;;;5.94;68.05;97934.20;1716276;83;21590;-82
2021/03/28 07:45:20;;;;;;;10.65;7.00;;;;;;;6.13;66.67;97935.03;1721401;81;21268;-82
2021/03/28 07:48:19;;;;;;;5.80;4.65;;;;;;;5.45;65.94;97937.56;1716926;83;21466;-84
2021/03/28 07:51:03;;;;;;;10.68;6.95;;;;;;;4.75;66.61;97930.14;1704105;81;21522;-85
2021/03/28 07:54:01;;;;;;;11.93;6.95;;;;;;;4.34;67.80;97936.53;1723851;82;21254;-84
2021/03/28 07:57:03;;;;;;;17.48;11.22;;;;;;;4.29;68.53;97942.91;1705681;83;21148;-84
2021/03/28 08:00:05;;;;;;;12.05;7.42;;;;;;;4.20;68.71;97951.20;1721861;82;21622;-84
2021/03/28 08:03:19;;;;;;;8.15;6.12;;;;;;;4.00;69.50;97952.03;1721605;82;21114;-84
2021/03/28 08:06:37;;;;;;;10.32;5.72;;;;;;;4.23;70.08;97951.62;1727444;82;21159;-85
2021/03/28 08:09:38;;;;;;;8.95;5.47;;;;;;;4.50;68.44;97953.66;1711617;83;21488;-85
2021/03/28 08:12:50;;;;;;;10.30;6.25;;;;;;;4.75;66.82;97944.59;1714116;83;21107;-84
2021/03/28 08:15:49;;;;;;;10.50;6.55;;;;;;;4.85;67.96;97962.05;1719073;83;21138;-84
2021/03/28 08:18:37;;;;;;;8.23;5.75;;;;;;;7.21;63.61;97953.39;1705637;81;21151;-82
2021/03/28 08:21:21;;;;;;;7.70;6.10;;;;;;;9.20;59.36;97950.29;1714175;83;21123;-82
2021/03/28 08:24:12;;;;;;;8.33;4.92;;;;;;;9.86;56.06;97951.98;1722568;83;21447;-83
2021/03/28 08:30:07;;;;;;;6.08;4.35;;;;;;;9.00;51.56;97967.88;1783783;78;22382;-83
2021/03/28 08:33:13;;;;;;;9.45;6.10;;;;;;;7.48;53.63;97975.75;1764735;81;21475;-84
2021/03/28 08:36:12;;;;;;;9.18;5.55;;;;;;;6.47;57.07;97977.13;1763799;79;21601;-85
2021/03/28 08:38:47;;;;;;;7.90;5.05;;;;;;;5.62;58.32;97978.62;1757176;79;21635;-83
2021/03/28 08:41:53;;;;;;;7.20;4.90;;;;;;;5.22;60.54;97978.88;1764963;79;21189;-84
2021/03/28 08:44:54;;;;;;;10.70;6.53;;;;;;;6.67;59.59;97973.50;1769426;79;21127;-85
2021/03/28 08:47:35;;;;;;;9.25;5.90;;;;;;;6.72;59.23;97973.64;1698497;82;21194;-85
2021/03/28 08:50:46;;;;;;;11.70;8.05;;;;;;;9.40;56.61;97974.47;1733939;82;21323;-84
2021/03/28 08:53:44;;;;;;;14.87;5.92;;;;;;;9.46;52.67;97971.42;1678796;82;21142;-84
2021/03/28 08:56:42;;;;;;;9.10;4.95;;;;;;;7.61;53.76;97992.72;1740369;81;21124;-84
2021/03/28 08:59:36;;;;;;;9.00;5.42;;;;;;;6.52;55.66;97982.57;1719393;82;21189;-84
2021/03/28 09:02:59;;;;;;;9.33;5.15;;;;;;;5.80;57.02;97985.30;1742863;81;21139;-84
2021/03/28 09:05:46;;;;;;;8.00;5.85;;;;;;;5.42;58.81;97994.53;1719756;82;21118;-85
2021/03/28 09:08:25;;;;;;;9.50;6.42;;;;;;;5.22;59.42;97997.78;1709565;82;21100;-82
2021/03/28 09:11:27;;;;;;;8.73;5.92;;;;;;;5.04;60.03;97994.50;1729646;81;21116;-84
2021/03/28 09:14:15;;;;;;;9.25;4.90;;;;;;;5.94;59.68;97996.05;1718667;83;21145;-84
2021/03/28 09:16:59;;;;;;;7.97;3.70;;;;;;;6.68;57.46;97983.02;1698268;83;21489;-84
2021/03/28 09:20:05;;;;;;;8.58;5.45;;;;;;;6.58;55.03;97978.24;1723894;82;21102;-84
2021/03/28 09:22:53;;;;;;;7.28;5.22;;;;;;;6.32;55.24;97987.20;1688820;82;21139;-84
2021/03/28 09:25:34;;;;;;;9.40;5.12;;;;;;;6.30;55.97;97991.89;1725777;81;21161;-84
2021/03/28 09:28:41;;;;;;;6.78;5.22;;;;;;;6.17;56.21;97993.32;1712356;83;21127;-84
2021/03/28 09:31:35;;;;;;;8.23;5.37;;;;;;;5.73;56.90;97998.99;1735188;82;21594;-84
2021/03/28 09:34:34;;;;;;;9.95;5.90;;;;;;;5.56;57.48;98000.52;1724467;82;21192;-85
2021/03/28 09:37:35;;;;;;;15.90;5.33;;;;;;;5.58;58.83;98002.43;1744022;82;21172;-84
2021/03/28 09:40:08;;;;;;;8.73;5.78;;;;;;;5.52;58.51;97999.34;1734852;82;21111;-84
2021/03/28 09:42:56;;;;;;;8.10;5.08;;;;;;;5.64;59.78;98005.03;1717414;82;21138;-83
2021/03/28 09:45:53;;;;;;;9.10;4.50;;;;;;;6.15;59.63;98001.44;1729575;82;21107;-84
2021/03/28 09:48:56;;;;;;;14.45;6.15;;;;;;;6.37;57.24;97997.11;1732413;82;21148;-84
2021/03/28 09:51:59;;;;;;;6.03;3.67;;;;;;;6.48;56.75;97991.14;1721463;82;21164;-84
2021/03/28 09:55:00;;;;;;;4.03;2.47;;;;;;;6.53;53.87;97997.35;1720114;82;21119;-84
2021/03/28 09:58:00;;;;;;;6.05;3.67;;;;;;;6.25;53.09;97985.97;1729597;82;21477;-83
2021/03/28 10:00:58;;;;;;;6.17;3.50;;;;;;;5.94;53.60;97985.52;1729449;82;21098;-84
2021/03/28 10:03:35;;;;;;;10.88;5.60;;;;;;;5.81;54.23;97997.43;1735522;82;21097;-84
2021/03/28 10:06:08;;;;;;;9.38;3.90;;;;;;;6.06;56.36;97993.53;1739867;82;21156;-84
2021/03/28 10:08:43;;;;;;;5.83;3.70;;;;;;;6.63;56.28;98000.01;1752756;81;21273;-84
2021/03/28 10:11:28;;;;;;;7.42;4.53;;;;;;;7.12;55.75;97995.88;1730184;82;21150;-84
2021/03/28 10:14:26;;;;;;;5.87;4.45;;;;;;;7.56;57.08;97996.52;1727379;82;21127;-84
2021/03/28 10:17:20;;;;;;;4.67;3.22;;;;;;;7.31;53.50;97995.33;1729466;81;21549;-84
2021/03/28 10:19:56;;;;;;;6.12;3.90;;;;;;;7.18;52.61;97998.16;1724056;81;21132;-84
2021/03/28 10:22:55;;;;;;;6.55;3.67;;;;;;;7.21;51.72;98000.86;1739776;81;21159;-84
2021/03/28 10:26:01;;;;;;;5.85;3.00;;;;;;;7.13;51.16;98004.08;1727422;81;21180;-84
2021/03/28 10:28:45;;;;;;;7.70;3.42;;;;;;;7.48;50.48;97984.98;1724886;81;21504;-85
2021/03/28 10:31:23;;;;;;;4.87;3.27;;;;;;;7.19;49.64;97982.63;1716462;82;21592;-85
2021/03/28 10:34:32;;;;;;;7.28;4.15;;;;;;;6.92;50.21;97995.84;1707488;83;21150;-85
2021/03/28 10:37:34;;;;;;;7.25;3.70;;;;;;;6.82;49.87;97992.39;1715319;82;21127;-83
2021/03/28 10:40:43;;;;;;;6.28;4.22;;;;;;;6.77;51.70;98000.16;1707511;83;21136;-85
2021/03/28 10:43:34;;;;;;;5.40;3.72;;;;;;;6.72;50.70;98002.11;1684013;84;21136;-84
2021/03/28 10:46:41;;;;;;;7.67;4.28;;;;;;;6.97;51.68;97990.70;1717991;82;21193;-85
2021/03/28 10:49:49;;;;;;;6.20;3.35;;;;;;;7.33;51.26;97992.50;1708173;82;21492;-85
2021/03/28 10:52:54;;;;;;;5.22;3.58;;;;;;;7.71;50.69;97986.36;1696693;84;21489;-85
2021/03/28 10:55:47;;;;;;;5.80;3.17;;;;;;;7.68;50.33;97986.81;1691893;84;21126;-85
2021/03/28 10:58:55;;;;;;;8.10;4.22;;;;;;;7.71;49.97;97978.44;1700644;84;21164;-85
2021/03/28 11:02:02;;;;;;;7.60;4.83;;;;;;;7.79;51.46;97982.59;1703346;82;21473;-85
2021/03/28 11:05:13;;;;;;;5.65;3.50;;;;;;;8.13;50.30;97978.91;1687683;84;21130;-85
2021/03/28 11:08:23;;;;;;;6.15;3.85;;;;;;;7.87;49.98;97985.41;1690150;84;21511;-85
2021/03/28 11:11:13;;;;;;;5.37;4.03;;;;;;;7.87;49.50;97978.81;1695283;84;21118;-85
2021/03/28 11:14:04;;;;;;;6.87;3.60;;;;;;;7.86;47.59;97989.09;1711171;82;21169;-85
2021/03/28 11:17:02;;;;;;;8.60;4.40;;;;;;;8.17;48.36;97982.20;1687036;84;21515;-85
2021/03/28 11:20:01;;;;;;;3.55;2.55;;;;;;;8.26;48.49;97981.33;1689736;84;21118;-85
2021/03/28 11:23:07;;;;;;;5.20;3.47;;;;;;;8.35;46.47;97977.88;1715902;82;21555;-85
2021/03/28 11:26:13;;;;;;;8.65;4.47;;;;;;;8.39;47.62;97976.37;1712073;82;21596;-85
2021/03/28 11:28:54;;;;;;;7.78;3.50;;;;;;;8.71;47.93;97968.86;1694006;83;21151;-85
2021/03/28 11:31:36;;;;;;;5.50;3.12;;;;;;;8.86;47.05;97971.30;1686162;83;21201;-85
2021/03/28 11:34:27;;;;;;;7.15;3.60;;;;;;;8.82;47.67;97974.14;1700425;83;21201;-85
2021/03/28 11:40:20;;;;;;;4.47;3.30;;;;;;;9.41;46.56;97968.66;1866144;76;22812;-84
2021/03/28 11:43:08;;;;;;;5.67;3.70;;;;;;;9.56;45.98;97969.45;1842072;77;21097;-85
2021/03/28 11:45:46;;;;;;;7.28;3.87;;;;;;;9.84;45.87;97968.09;1824193;77;21130;-85
2021/03/28 11:48:48;;;;;;;5.65;3.65;;;;;;;9.71;45.47;97963.09;1821318;77;21079;-84
2021/03/28 11:51:38;;;;;;;5.83;3.20;;;;;;;9.40;44.88;97974.47;1812289;77;21663;-85
2021/03/28 11:54:15;;;;;;;5.40;3.10;;;;;;;9.21;45.73;97961.95;1767649;80;21115;-85
2021/03/28 11:56:51;;;;;;;7.00;4.12;;;;;;;9.40;45.40;97963.88;1789624;78;21119;-85
2021/03/28 11:59:25;;;;;;;5.83;3.02;;;;;;;9.61;46.08;97957.64;1796346;78;21074;-84
2021/03/28 12:02:02;;;;;;;6.03;3.10;;;;;;;9.73;43.09;97958.39;1783691;80;21159;-84
2021/03/28 12:04:43;;;;;;;4.45;2.50;;;;;;;9.73;43.26;97955.73;1778251;80;21245;-85
2021/03/28 12:07:37;;;;;;;5.35;2.87;;;;;;;9.67;42.40;97942.12;1787719;80;21076;-85
2021/03/28 12:10:09;;;;;;;6.80;3.35;;;;;;;9.60;42.23;97952.88;1778253;80;21110;-84
2021/03/28 12:12:54;;;;;;;4.53;3.00;;;;;;;9.32;42.17;97944.44;1767043;80;21451;-84
2021/03/28 12:15:46;;;;;;;4.22;2.67;;;;;;;9.18;42.48;97947.08;1788621;80;21115;-85
2021/03/28 12:18:31;;;;;;;3.98;2.90;;;;;;;9.40;43.52;97945.88;1773500;80;21542;-85
2021/03/28 12:21:09;;;;;;;7.15;3.22;;;;;;;9.58;44.23;97939.08;1785849;80;21111;-85
2021/03/28 12:23:45;;;;;;;6.80;3.12;;;;;;;9.94;45.37;97939.12;1770912;79;21202;-84
2021/03/28 12:26:19;;;;;;;5.60;3.22;;;;;;;10.28;43.78;97929.87;1772591;79;21111;-85
2021/03/28 12:28:51;;;;;;;5.78;3.05;;;;;;;9.79;41.81;97934.91;1764252;80;21101;-84
2021/03/28 12:31:45;;;;;;;5.87;3.12;;;;;;;9.65;44.32;97934.41;1806951;79;21103;-85
2021/03/28 12:34:36;;;;;;;6.05;3.00;;;;;;;9.97;43.16;97924.59;1765905;79;21107;-85
2021/03/28 12:37:15;;;;;;;3.85;1.98;;;;;;;10.12;42.88;97936.22;1777874;79;21181;-85
2021/03/28 12:39:48;;;;;;;5.40;2.62;;;;;;;9.88;38.49;97935.33;1764713;80;21509;-84
2021/03/28 12:42:33;;;;;;;4.45;2.67;;;;;;;9.78;42.09;97933.30;1783126;80;21119;-84
2021/03/28 12:45:16;;;;;;;3.62;2.60;;;;;;;9.94;41.18;97925.88;1751283;80;21084;-85
2021/03/28 12:47:51;;;;;;;6.62;2.58;;;;;;;9.87;38.56;97923.92;1764629;80;21177;-84
2021/03/28 12:50:30;;;;;;;5.83;2.60;;;;;;;9.54;38.74;97928.66;1774532;80;21127;-84
2021/03/28 12:53:20;;;;;;;5.12;2.50;;;;;;;9.45;40.10;97931.44;1772553;79;21266;-84
2021/03/28 12:55:50;;;;;;;;;;;;;;;9.64;40.64;97924.06;1749115;80;21221;-84
2021/03/28 12:58:42;;;;;;;4.90;2.70;;;;;;;9.92;41.03;97923.19;1796158;78;20145;-85
2021/03/28 13:01:32;;;;;;;;;;;;;;;10.11;40.79;97921.89;1780659;79;21163;-85
2021/03/28 13:04:23;;;;;;;5.37;2.70;;;;;;;10.28;41.70;97913.45;1762118;80;20436;-85
2021/03/28 13:06:52;;;;;;;4.40;2.80;;;;;;;10.35;41.07;97914.58;1764905;81;21132;-83
2021/03/28 13:09:36;;;;;;;3.87;2.15;;;;;;;10.31;41.13;97917.45;1764928;81;21502;-85
2021/03/28 13:12:13;;;;;;;3.87;2.42;;;;;;;10.40;39.84;97905.36;1768366;80;21103;-85
2021/03/28 13:14:44;;;;;;;4.20;2.67;;;;;;;10.42;39.61;97908.59;1779878;80;21110;-85
2021/03/28 13:17:20;;;;;;;4.60;2.60;;;;;;;10.34;39.98;97908.48;1770461;79;21258;-84
2021/03/28 13:19:52;;;;;;;5.75;2.80;;;;;;;10.36;40.84;97916.18;1759068;79;21350;-84
2021/03/28 13:22:39;;;;;;;7.78;4.30;;;;;;;10.49;41.40;97909.20;1786677;79;21118;-84
2021/03/28 13:25:24;;;;;;;5.95;2.95;;;;;;;10.46;39.72;97909.70;1783921;79;21113;-84
2021/03/28 13:28:03;;;;;;;6.17;3.20;;;;;;;10.38;39.74;97907.45;1780319;79;21178;-85
2021/03/28 13:30:41;;;;;;;15.90;9.05;;;;;;;10.22;38.53;97913.08;1779656;80;21149;-85
2021/03/28 13:33:36;;;;;;;10.38;5.47;;;;;;;10.04;38.47;97915.97;1735609;80;21115;-85
2021/03/28 13:36:21;;;;;;;6.30;2.67;;;;;;;9.83;37.36;97912.19;1766951;79;21333;-85
2021/03/28 13:39:12;;;;;;;5.20;2.75;;;;;;;9.45;37.20;97916.35;1767989;79;21473;-85
2021/03/28 13:41:42;;;;;;;;;;;;;;;9.31;38.84;97913.72;1771559;80;21124;-85
2021/03/28 13:44:37;;;;;;;7.72;2.95;;;;;;;9.45;39.04;97915.03;1771710;80;20405;-85